METAR AND TAF INFORMATION
METAR FOR EHBK
ADDS - METARS form results

(0828 UTC 15 April 2021)
Data provider http://aviationweather.gov/metar/data/
 
METAR text: EHBK 150825Z AUTO 04004KT 350V090 9999 FEW017 BKN023 OVC027 05/00 Q1030 NOSIG
Conditions at: EHBK (ZUID-LIMBURG/BEE, NL) observed 0825 UTC 15 April 2021
Temperature: 5.0°C (41°F)
Dewpoint: 0.0°C (32°F) [RH = 70%]
Pressure (altimeter): 30.41 inches Hg (1030.0 mb)
Winds: from the NE (40 degrees) at 5 MPH (4 knots; 2.1 m/s)
Visibility: 6 or more miles (10+ km)
Ceiling: 2300 feet AGL
Clouds: few clouds at 1700 feet AGL
broken clouds at 2300 feet AGL
overcast cloud deck at 2700 feet AGL
Weather: no significant weather observed at this time

METAR text: EHBK 150755Z AUTO 07005KT 040V110 9999 BKN032 BKN036 05/01 Q1030 NOSIG
Conditions at: EHBK (ZUID-LIMBURG/BEE, NL) observed 0755 UTC 15 April 2021
Temperature: 5.0°C (41°F)
Dewpoint: 1.0°C (34°F) [RH = 75%]
Pressure (altimeter): 30.41 inches Hg (1030.0 mb)
Winds: from the ENE (70 degrees) at 6 MPH (5 knots; 2.6 m/s)
Visibility: 6 or more miles (10+ km)
Ceiling: 3200 feet AGL
Clouds: broken clouds at 3200 feet AGL
broken clouds at 3600 feet AGL
Weather: no significant weather observed at this time

Forecast for: EHBK (ZUID-LIMBURG/BEE, NL)
Text: TAF EHBK 150505Z 1506/1612 35004KT CAVOK
Forecast period: 0600 UTC 15 April 2021 to 1200 UTC 16 April 2021
Forecast type: FROM: standard forecast or significant change
Winds: from the N (350 degrees) at 5 MPH (4 knots; 2.1 m/s)
Visibility: 6 or more miles (10+ km)
Ceiling: unknown
Clouds: missing
Weather: NSW  (no significant weather)
Text: PROB30 1506/1509 4000 BR BKN004
Forecast period: 0600 to 0900 UTC 15 April 2021
Forecast type: PROBABLE: 30 percent likelihood of the following during this time
Visibility: 2.49 miles (4.01 km)
Ceiling: 400 feet AGL
Clouds: broken clouds at 400 feet AGL
Weather: BR  (mist)

 AIRPORT MAP

 RUNWAY INFORMATION
Runway 03 Runway length 8202 ft Runway width 148 ft
Runway elevation 365 ft Runway displaced threshold 820 ft Runway heading 33
Runway 21 Runway length 8202 ft Runway width 148 ft
Runway elevation 370 ft Runway displaced threshold 820 ft Runway heading 213

 AIRPORT FREQUENCIES
Type APP Name BEEK APP Frequency 120.2 MHZ
Type ATIS Name ATIS Frequency 124.575 MHZ
Type GND Name BEEK GND Frequency 121.825 MHZ
Type TWR Name BEEK TWR Frequency 119.475 MHZ

 AIRPORT NEAR NAVIGATION AIDS
Type VOR-DME Name Maastricht Frequency 108600 KHZ
Type NDB Name Maastricht Frequency 373 KHZ



Powered by Virtual Airlines Manager [v2.6.2]